• Join FlightAware (Why Join?)
  • Login
  • US Flag 
06:04PM EDT


 

Airport Tracker/Info


-or-


 

Live Flight TrackerFlight Track Log ✈ SWD90 ✈ 12-Sep-2013 ✈ KMJQ - 0D8

Flight Track Log - Related Links

Times and Time Zones

All times are in EDT time to prevent confusion due to time zone crossing. See the SWD90 flight status page for this flight to view local times or setup timezone preferences in your user account.

Time Position Orientation Groundspeed Altitude Reporting Facility
EDT Latitude Longitude Course Direction KTS MPH feet Rate Location/Type
04:17PM 43.6833 -95.0800 282° West 142 163 4,400  Level Minneapolis Center
04:18PM 43.6919 -95.1381 282° West 147 169 6,100 1,260 Climbing Minneapolis Center
04:19PM 43.7061 -95.2133 285° West 159 183 7,100 1,380 Climbing Minneapolis Center
04:20PM 43.7225 -95.2792 289° West 173 199 9,000 1,560 Climbing Minneapolis Center
04:22PM 43.7350 -95.3292 289° West 152 175 10,400 1,200 Climbing Minneapolis Center
04:23PM 43.7500 -95.3753 294° West 137 158 11,600 1,200 Climbing Minneapolis Center
04:24PM 43.7656 -95.4294 292° West 144 166 12,900 1,320 Climbing Minneapolis Center
04:25PM 43.7811 -95.4903 290° West 160 184 14,400 1,560 Climbing Minneapolis Center
04:26PM 43.8014 -95.5547 294° West 154 177 16,200 1,320 Climbing Minneapolis Center
04:27PM 43.8194 -95.6044 297° West 147 169 17,200 720 Climbing Minneapolis Center
04:28PM 43.8386 -95.6614 295° West 158 182 17,700 420 Climbing Minneapolis Center
04:29PM 43.8564 -95.7264 291° West 175 201 18,100 120 Climbing Minneapolis Center
04:30PM 43.8753 -95.7992 290° West 194 223 18,000 -60 Descending Minneapolis Center
04:31PM 43.8994 -95.8739 294° West 208 239 18,000  Level Minneapolis Center
04:32PM 43.9294 -95.9633 295° West 213 245 18,000  Level Minneapolis Center
04:33PM 43.9544 -96.0361 296° West 210 242 18,000  Level Minneapolis Center
04:34PM 43.9764 -96.1119 292° West 211 243 18,000  Level Minneapolis Center
04:35PM 43.9992 -96.1886 292° West 213 245 18,000  Level Minneapolis Center
04:36PM 44.0208 -96.2661 291° West 214 246 18,000  Level Minneapolis Center
04:37PM 44.0436 -96.3419 293° West 212 244 18,000  Level Minneapolis Center
04:38PM 44.0656 -96.4181 292° West 211 243 18,000  Level Minneapolis Center
04:39PM 44.0908 -96.5100 291° West 211 243 18,000  Level Minneapolis Center
04:40PM 44.1125 -96.5878 291° West 214 246 18,000  Level Minneapolis Center
04:41PM 44.1336 -96.6650 291° West 213 245 18,000  Level Minneapolis Center
04:42PM 44.1536 -96.7439 289° West 215 247 18,000  Level Minneapolis Center
04:43PM 44.1756 -96.8200 292° West 213 245 18,000  Level Minneapolis Center
04:44PM 44.1978 -96.8964 292° West 213 245 18,000  Level Minneapolis Center
04:45PM 44.2222 -96.9903 290° West 214 246 18,000  Level Minneapolis Center
04:46PM 44.2442 -97.0683 291° West 217 250 18,000  Level Minneapolis Center
04:47PM 44.2647 -97.1444 291° West 213 245 18,000  Level Minneapolis Center
04:48PM 44.2864 -97.2214 291° West 213 245 18,000  Level Minneapolis Center
04:49PM 44.3067 -97.2981 290° West 213 245 18,000  Level Minneapolis Center
04:50PM 44.3272 -97.3733 291° West 210 242 18,000  Level Minneapolis Center
04:52PM 44.3522 -97.4647 291° West 210 242 18,000  Level Minneapolis Center
04:53PM 44.3722 -97.5411 290° West 210 242 18,000  Level Minneapolis Center
04:55PM 44.4036 -97.6931 290° West  Level FlightAware Approximate
04:56PM 44.4336 -97.7700 290° West 210 242 18,000  Level Minneapolis Center
04:57PM 44.4536 -97.8461 290° West 210 242 18,000  Level Minneapolis Center
04:58PM 44.4794 -97.9367 292° West 209 241 18,000  Level Minneapolis Center
04:59PM 44.4981 -98.0144 289° West 210 242 18,000  Level Minneapolis Center
05:00PM 44.5183 -98.0903 291° West 209 241 18,000  Level Minneapolis Center
05:01PM 44.5375 -98.1678 289° West 210 242 18,000  Level Minneapolis Center
05:02PM 44.5569 -98.2456 289° West 211 243 18,000  Level Minneapolis Center
05:03PM 44.5814 -98.3375 290° West 211 243 18,000  Level Minneapolis Center
05:04PM 44.5997 -98.4067 290° West 212 244 18,000  Level Minneapolis Center
05:05PM 44.6208 -98.4831 291° West 211 243 18,000  Level Minneapolis Center
05:06PM 44.6453 -98.5778 290° West 214 246 18,000 -60 Level Minneapolis Center
05:07PM 44.6667 -98.6544 North 213 245 17,900 -420 Descending Minneapolis Center
05:08PM 44.6872 -98.7397 289° West 225 259 17,200 -780 Descending Minneapolis Center
05:08PM 44.6810 -98.7690 288° West  Level FlightAware Approximate
05:09PM 44.7064 -98.8344 286° West 245 282 16,400  Level Minneapolis Center
05:10PM 44.7303 -98.9247 290° West 247 284 15,300 -1,260 Descending Minneapolis Center
05:12PM 44.7850 -99.1208 292° West 244 281 12,600 -1,200 Descending Minneapolis Center
05:13PM 44.8036 -99.2150 286° West 247 284 11,600 -1,080 Descending Minneapolis Center
05:14PM 44.8253 -99.3067 288° West 247 284 10,400 -1,200 Descending Minneapolis Center
05:15PM 44.8001 -99.2337 288° West  Level FlightAware Approximate
05:15PM 44.8469 -99.4006 288° West 249 287 9,200  Level Minneapolis Center
05:16PM 44.8176 -99.3121 288° West  Level FlightAware Approximate
05:16PM 44.8700 -99.4917 290° West 249 287 7,900  Level Minneapolis Center
05:17PM 44.8351 -99.3906 287° West  Level FlightAware Approximate
05:17PM 44.8917 -99.5825 289° West 247 284 6,800  Level Minneapolis Center
05:18PM 44.8525 -99.4691 287° West  Level FlightAware Approximate
05:19PM 44.8709 -99.5471 294° West  Level FlightAware Approximate
05:20PM 44.8942 -99.6226 294° West  Level FlightAware Approximate
05:21PM 44.9174 -99.6981 293° West  Level FlightAware Approximate
05:22PM 44.9370 -99.7753 281° West  Level FlightAware Approximate
05:23PM 44.9485 -99.8560 281° West  Level FlightAware Approximate
05:24PM 44.9749 -99.9290 300° West  Level FlightAware Approximate
05:25PM 44.9833 -99.9500 North  Level FlightAware Approximate
05:26PM 44.9866 -99.9529 North  Level Estimated
05:27PM 44.9833 -99.9500 North  Level FlightAware Approximate
05:28PM 44.9866 -99.9529 North  Level Estimated
05:29PM 44.9833 -99.9500 North  Level FlightAware Approximate
05:30PM 44.9866 -99.9529 North  Level Estimated
05:31PM 44.9833 -99.9500 North  Level FlightAware Approximate
05:32PM 44.9866 -99.9529 North  Level Estimated
05:33PM 44.9833 -99.9500 North  Level FlightAware Approximate
05:34PM 44.9866 -99.9529 North  Level Estimated
05:35PM 44.9833 -99.9500 North  Level FlightAware Approximate
05:36PM 44.9866 -99.9529 North  Level Estimated
05:37PM 44.9833 -99.9500 North  Level FlightAware Approximate
05:38PM 44.9866 -99.9529 North  Level Estimated
05:39PM 44.9833 -99.9500 North  Level FlightAware Approximate
05:40PM 45.0767 -99.6153 66° East 209 241 9,000  Level Minneapolis Center
05:41PM 45.1050 -99.5350 63° Northeast 223 257 9,000  Level Minneapolis Center
05:42PM 45.1339 -99.4525 64° Northeast 230 265 9,000  Level Minneapolis Center
05:43PM 45.1678 -99.3553 64° Northeast 231 266 9,000  Level Minneapolis Center
05:44PM 45.2006 -99.2581 64° Northeast 230 265 9,000  Level Minneapolis Center
05:45PM 45.2258 -99.1731 67° East 231 266 9,000 -180 Level Minneapolis Center
05:47PM 45.2750 -99.0022 68° East 233 268 8,500 -600 Descending Minneapolis Center
05:48PM 45.3058 -98.8950 68° East 239 275 7,300 -1,020 Descending Minneapolis Center
05:49PM 45.3267 -98.8233 68° East 242 278 6,500 -780 Descending Minneapolis Center